createdAt,value
2022-08-17T00:00:16.536Z,23.10
2022-08-17T00:03:02.747Z,23.06
2022-08-17T00:05:33.939Z,22.98
2022-08-17T00:08:02.009Z,22.98
2022-08-17T00:10:30.057Z,22.91
2022-08-17T00:13:00.835Z,22.86
2022-08-17T00:15:28.980Z,22.71
2022-08-17T00:17:57.234Z,22.71
2022-08-17T00:20:30.627Z,22.61
2022-08-17T00:23:05.988Z,22.50
2022-08-17T00:25:34.097Z,22.54
2022-08-17T00:28:02.116Z,22.54
2022-08-17T00:30:30.177Z,22.58
2022-08-17T00:33:20.120Z,22.57
2022-08-17T00:35:48.572Z,22.60
2022-08-17T00:38:18.006Z,22.63
2022-08-17T00:40:49.512Z,22.66
2022-08-17T00:43:22.443Z,22.67
2022-08-17T00:45:50.657Z,22.71
2022-08-17T00:48:28.932Z,22.74
2022-08-17T00:51:00.833Z,22.78
2022-08-17T00:53:31.170Z,22.75
2022-08-17T00:56:01.285Z,22.75
2022-08-17T00:58:36.086Z,22.73
2022-08-17T01:01:05.560Z,22.71
2022-08-17T01:03:33.672Z,22.71
2022-08-17T01:06:01.933Z,22.70
2022-08-17T01:08:31.678Z,22.64
2022-08-17T01:11:02.215Z,22.61
2022-08-17T01:13:40.341Z,22.64
2022-08-17T01:16:12.953Z,22.65
2022-08-17T01:18:42.176Z,22.72
2022-08-17T01:21:12.662Z,22.72
2022-08-17T01:23:43.259Z,22.72
2022-08-17T01:26:11.352Z,22.72
2022-08-17T01:28:55.004Z,22.72
2022-08-17T01:31:25.287Z,22.74
2022-08-17T01:33:53.505Z,22.70
2022-08-17T01:36:21.644Z,22.70
2022-08-17T01:38:51.064Z,22.64
2022-08-17T01:41:19.065Z,22.65
2022-08-17T01:43:48.854Z,22.59
2022-08-17T01:46:18.069Z,22.60
2022-08-17T01:48:47.543Z,22.59
2022-08-17T01:51:15.979Z,22.51
2022-08-17T01:53:46.209Z,22.55
2022-08-17T01:56:16.732Z,22.52
2022-08-17T01:58:44.954Z,22.52
2022-08-17T02:01:17.826Z,22.53
2022-08-17T02:03:53.350Z,22.49
2022-08-17T02:06:28.468Z,22.50
2022-08-17T02:09:02.555Z,22.46
2022-08-17T02:11:33.495Z,22.48
2022-08-17T02:14:04.022Z,22.50
2022-08-17T02:16:37.687Z,22.46
2022-08-17T02:19:07.316Z,22.51
2022-08-17T02:21:35.376Z,22.49
2022-08-17T02:24:03.476Z,22.45
2022-08-17T02:26:32.892Z,22.46
2022-08-17T02:29:01.115Z,22.45
2022-08-17T02:31:31.082Z,22.49
2022-08-17T02:34:03.460Z,22.49
2022-08-17T02:36:32.411Z,22.52
2022-08-17T02:39:01.589Z,22.52
2022-08-17T02:41:29.787Z,22.41
2022-08-17T02:43:59.237Z,22.42
2022-08-17T02:46:27.391Z,22.38
2022-08-17T02:48:55.553Z,22.38
2022-08-17T02:51:23.607Z,22.38
2022-08-17T02:53:51.645Z,22.40
2022-08-17T02:56:19.647Z,22.43
2022-08-17T02:58:47.707Z,22.43
2022-08-17T03:01:17.175Z,22.41
2022-08-17T03:03:45.229Z,22.40
2022-08-17T03:06:13.237Z,22.40
2022-08-17T03:08:41.281Z,22.38
2022-08-17T03:11:09.309Z,22.38
2022-08-17T03:13:37.423Z,22.39
2022-08-17T03:16:05.717Z,22.33
2022-08-17T03:18:35.131Z,22.39
2022-08-17T03:21:04.396Z,22.39
2022-08-17T03:23:33.069Z,22.34
2022-08-17T03:26:01.125Z,22.35
2022-08-17T03:28:30.231Z,22.39
2022-08-17T03:30:58.473Z,22.40
2022-08-17T03:33:26.448Z,22.45
2022-08-17T03:35:55.892Z,22.47
2022-08-17T03:38:24.220Z,22.51
2022-08-17T03:40:56.260Z,22.51
2022-08-17T03:43:26.308Z,22.53
2022-08-17T03:46:27.900Z,22.53
2022-08-17T03:49:17.090Z,22.50
2022-08-17T03:52:03.918Z,22.48
2022-08-17T03:54:49.248Z,22.50
2022-08-17T03:57:17.427Z,22.48
2022-08-17T03:59:45.442Z,22.44
2022-08-17T04:02:15.609Z,22.41
2022-08-17T04:04:43.668Z,22.46
2022-08-17T04:07:13.166Z,22.48
2022-08-17T04:09:42.909Z,22.51
2022-08-17T04:12:10.972Z,22.54
2022-08-17T04:14:52.137Z,22.50
2022-08-17T04:17:22.827Z,22.54
2022-08-17T04:19:50.811Z,22.53
2022-08-17T04:22:32.137Z,22.53
2022-08-17T04:25:05.862Z,22.52
2022-08-17T04:27:33.871Z,22.54
2022-08-17T04:30:01.941Z,22.49
2022-08-17T04:33:04.057Z,22.52
2022-08-17T04:35:22.055Z,22.56
2022-08-17T04:37:51.486Z,22.62
2022-08-17T04:40:36.824Z,22.61
2022-08-17T04:43:05.419Z,22.52
2022-08-17T04:45:33.416Z,22.50
2022-08-17T04:48:01.836Z,22.50
2022-08-17T04:50:29.824Z,22.51
2022-08-17T04:52:59.438Z,22.52
2022-08-17T04:55:27.756Z,22.51
2022-08-17T04:57:55.803Z,22.46
2022-08-17T05:00:25.847Z,22.48
2022-08-17T05:02:55.877Z,22.50
2022-08-17T05:05:25.453Z,22.49
2022-08-17T05:07:54.438Z,22.44
2022-08-17T05:10:23.890Z,22.45
2022-08-17T05:12:58.822Z,22.45
2022-08-17T05:15:27.195Z,22.48
2022-08-17T05:17:55.226Z,22.52
2022-08-17T05:20:23.335Z,22.55
2022-08-17T05:22:51.742Z,22.56
2022-08-17T05:25:25.518Z,22.58
2022-08-17T05:27:55.295Z,22.57
2022-08-17T05:30:24.001Z,22.55
2022-08-17T05:32:53.662Z,22.58
2022-08-17T05:35:22.022Z,22.61
2022-08-17T05:37:50.775Z,22.61
2022-08-17T05:40:19.910Z,22.59
2022-08-17T05:42:48.165Z,22.63
2022-08-17T05:45:54.135Z,22.67
2022-08-17T05:48:07.960Z,22.73
2022-08-17T05:50:41.945Z,22.75
2022-08-17T05:53:11.870Z,22.75
2022-08-17T05:55:43.911Z,22.75
2022-08-17T05:58:16.244Z,22.75
2022-08-17T06:00:50.938Z,22.74
2022-08-17T06:03:39.891Z,22.80
2022-08-17T06:06:15.785Z,22.83
2022-08-17T06:08:48.956Z,22.85
2022-08-17T06:11:23.754Z,22.90
2022-08-17T06:14:14.198Z,22.91
2022-08-17T06:16:45.425Z,22.95
2022-08-17T06:19:17.690Z,22.91
2022-08-17T06:21:47.447Z,22.94
2022-08-17T06:24:24.688Z,22.95
2022-08-17T06:26:52.753Z,22.97
2022-08-17T06:29:24.583Z,23.02
2022-08-17T06:31:54.026Z,23.04
2022-08-17T06:34:22.108Z,23.10
2022-08-17T06:36:52.929Z,23.13
2022-08-17T06:39:29.263Z,23.14
2022-08-17T06:42:02.315Z,23.16
2022-08-17T06:44:43.700Z,23.19
2022-08-17T06:47:28.456Z,23.24
2022-08-17T06:50:04.813Z,23.27
2022-08-17T06:52:45.739Z,23.30
2022-08-17T06:55:18.887Z,23.33
2022-08-17T06:57:48.353Z,23.33
2022-08-17T07:00:17.833Z,23.34
2022-08-17T07:03:02.089Z,23.32
2022-08-17T07:05:43.972Z,23.36
2022-08-17T07:08:14.841Z,23.41
2022-08-17T07:10:45.861Z,23.46
2022-08-17T07:13:25.485Z,23.51
2022-08-17T07:15:57.179Z,23.60
2022-08-17T07:18:27.810Z,23.67
2022-08-17T07:20:59.212Z,23.74
2022-08-17T07:23:38.647Z,23.82
2022-08-17T07:26:06.975Z,23.94
2022-08-17T07:28:35.148Z,24.00
2022-08-17T07:31:03.891Z,24.03
2022-08-17T07:33:34.664Z,24.06
2022-08-17T07:36:03.177Z,24.07
2022-08-17T07:38:32.169Z,24.04
2022-08-17T07:41:02.394Z,24.02
2022-08-17T07:43:31.361Z,23.98
2022-08-17T07:46:32.327Z,23.95
2022-08-17T07:49:20.362Z,23.92
2022-08-17T07:51:57.218Z,23.96
2022-08-17T07:54:33.778Z,23.99
2022-08-17T07:57:03.404Z,24.06
2022-08-17T07:59:33.717Z,24.09
2022-08-17T08:02:06.364Z,24.10
2022-08-17T08:07:28.581Z,24.09
2022-08-17T08:10:07.448Z,24.06
2022-08-17T08:12:38.290Z,24.09
2022-08-17T08:15:13.176Z,24.17
2022-08-17T08:17:49.567Z,24.29
2022-08-17T08:20:51.185Z,24.43
2022-08-17T08:23:11.736Z,24.56
2022-08-17T08:25:49.704Z,24.60
2022-08-17T08:28:25.777Z,24.66
2022-08-17T08:30:58.327Z,24.66
2022-08-17T08:33:39.808Z,24.66
2022-08-17T08:36:57.074Z,24.68
2022-08-17T08:39:04.713Z,24.72
2022-08-17T08:41:38.454Z,24.74
2022-08-17T08:44:11.779Z,24.82
2022-08-17T08:46:45.101Z,24.91
2022-08-17T08:49:59.491Z,24.97
2022-08-17T08:52:28.279Z,25.00
2022-08-17T08:54:58.885Z,25.02
2022-08-17T08:57:33.805Z,25.03
2022-08-17T09:00:08.761Z,25.08
2022-08-17T09:03:04.300Z,25.14
2022-08-17T09:05:39.303Z,25.15
2022-08-17T09:08:14.176Z,25.23
2022-08-17T09:10:50.920Z,25.36
2022-08-17T09:13:22.443Z,25.45
2022-08-17T09:15:52.534Z,25.49
2022-08-17T09:19:01.043Z,25.51
2022-08-17T09:21:15.026Z,25.53
2022-08-17T09:24:00.012Z,25.52
2022-08-17T09:26:31.342Z,25.51
2022-08-17T09:29:02.629Z,25.57
2022-08-17T09:31:47.017Z,25.69
2022-08-17T09:34:19.776Z,25.79
2022-08-17T09:36:51.622Z,25.90
2022-08-17T09:39:25.702Z,25.89
2022-08-17T09:41:56.882Z,25.82
2022-08-17T09:44:27.953Z,25.69
2022-08-17T09:46:58.378Z,25.60
2022-08-17T09:49:30.438Z,25.58
2022-08-17T09:52:09.413Z,25.59
2022-08-17T09:54:40.974Z,25.65
2022-08-17T09:57:32.350Z,25.79
2022-08-17T10:00:18.718Z,26.04
2022-08-17T10:03:19.869Z,26.22
2022-08-17T10:05:56.305Z,26.24
2022-08-17T10:08:34.785Z,26.19
2022-08-17T10:11:33.310Z,26.06
2022-08-17T10:14:36.768Z,25.96
2022-08-17T10:16:58.423Z,25.98
2022-08-17T10:19:29.381Z,25.98
2022-08-17T10:22:35.043Z,25.95
2022-08-17T10:25:26.035Z,25.84
2022-08-17T10:28:01.251Z,25.84
2022-08-17T10:30:30.900Z,25.88
2022-08-17T10:33:00.492Z,25.88
2022-08-17T10:35:38.056Z,25.93
2022-08-17T10:38:33.147Z,26.02
2022-08-17T10:41:05.194Z,26.16
2022-08-17T10:43:44.741Z,26.27
2022-08-17T10:46:55.522Z,26.42
2022-08-17T10:49:30.490Z,26.60
2022-08-17T10:51:59.989Z,26.86
2022-08-17T10:54:48.701Z,27.03
2022-08-17T10:57:40.980Z,27.12
2022-08-17T11:00:15.977Z,27.19
2022-08-17T11:02:51.896Z,27.20
2022-08-17T11:05:27.620Z,27.18
2022-08-17T11:08:29.091Z,27.26
2022-08-17T11:11:07.954Z,27.29
2022-08-17T11:13:42.329Z,27.36
2022-08-17T11:16:35.699Z,27.50
2022-08-17T11:19:39.649Z,27.53
2022-08-17T11:22:34.029Z,27.55
2022-08-17T11:25:13.768Z,27.62
2022-08-17T11:27:56.411Z,27.73
2022-08-17T11:30:48.518Z,27.75
2022-08-17T11:33:55.419Z,27.69
2022-08-17T11:36:33.920Z,27.64
2022-08-17T11:39:04.579Z,27.71
2022-08-17T11:41:37.645Z,27.80
2022-08-17T11:44:19.745Z,28.02
2022-08-17T11:47:17.126Z,28.18
2022-08-17T11:50:16.765Z,28.39
2022-08-17T11:52:47.368Z,28.49
2022-08-17T11:56:05.890Z,28.61
2022-08-17T11:59:00.802Z,28.74
2022-08-17T12:01:55.738Z,28.72
2022-08-17T12:04:28.946Z,28.66
2022-08-17T12:07:00.014Z,28.62
2022-08-17T12:09:30.563Z,28.64
2022-08-17T12:12:14.542Z,28.73
2022-08-17T12:15:09.125Z,28.86
2022-08-17T12:17:40.739Z,29.04
2022-08-17T12:20:15.222Z,29.19
2022-08-17T12:22:55.685Z,29.39
2022-08-17T12:25:25.669Z,29.53
2022-08-17T12:28:06.647Z,29.71
2022-08-17T12:30:36.198Z,29.75
2022-08-17T12:33:04.566Z,29.85
2022-08-17T12:35:39.111Z,29.96
2022-08-17T12:38:26.629Z,29.95
2022-08-17T12:40:59.844Z,29.85
2022-08-17T12:43:30.803Z,29.78
2022-08-17T12:46:01.223Z,29.80
2022-08-17T12:48:58.926Z,29.92
2022-08-17T12:51:29.396Z,29.95
2022-08-17T12:53:58.936Z,29.87
2022-08-17T12:56:27.805Z,29.90
2022-08-17T12:58:56.573Z,29.93
2022-08-17T13:01:25.237Z,29.95
2022-08-17T13:03:54.927Z,29.96
2022-08-17T13:06:29.054Z,29.91
2022-08-17T13:09:01.358Z,29.88
2022-08-17T13:11:29.724Z,29.88
2022-08-17T13:14:01.203Z,29.90
2022-08-17T13:16:31.035Z,30.09
2022-08-17T13:19:10.014Z,30.30
2022-08-17T13:21:38.461Z,30.65
2022-08-17T13:24:19.462Z,30.56
2022-08-17T13:26:50.487Z,30.69
2022-08-17T13:29:24.155Z,30.83
2022-08-17T13:31:59.762Z,31.02
2022-08-17T13:34:48.264Z,31.27
2022-08-17T13:37:32.732Z,31.35
2022-08-17T13:40:26.144Z,31.29
2022-08-17T13:42:55.603Z,31.51
2022-08-17T13:45:50.842Z,32.05
2022-08-17T13:48:29.387Z,32.56
2022-08-17T13:51:11.818Z,32.92
2022-08-17T13:53:51.261Z,33.05
2022-08-17T13:56:41.214Z,33.09
2022-08-17T13:59:11.210Z,32.99
2022-08-17T14:01:41.162Z,33.14
2022-08-17T14:04:13.589Z,33.08
2022-08-17T14:06:52.594Z,32.79
2022-08-17T14:09:24.120Z,32.44
2022-08-17T14:11:54.282Z,32.41
2022-08-17T14:14:23.820Z,32.48
2022-08-17T14:16:51.988Z,32.40
2022-08-17T14:19:22.309Z,32.33
2022-08-17T14:21:50.683Z,32.49
2022-08-17T14:24:23.621Z,32.89
2022-08-17T14:26:55.812Z,33.28
2022-08-17T14:29:25.519Z,33.73
2022-08-17T14:31:54.425Z,34.20
2022-08-17T14:34:23.129Z,34.30
2022-08-17T14:36:52.351Z,34.25
2022-08-17T14:39:20.444Z,34.10
2022-08-17T14:41:48.634Z,34.10
2022-08-17T14:44:18.195Z,34.21
2022-08-17T14:46:47.988Z,34.53
2022-08-17T14:49:20.642Z,34.74
2022-08-17T14:51:49.034Z,34.76
2022-08-17T14:54:33.492Z,34.82
2022-08-17T14:57:22.857Z,34.91
2022-08-17T14:59:55.794Z,34.87
2022-08-17T15:02:29.921Z,34.61
2022-08-17T15:05:02.576Z,34.27
2022-08-17T15:07:31.412Z,34.03
2022-08-17T15:10:01.568Z,33.81
2022-08-17T15:12:33.309Z,33.86
2022-08-17T15:15:06.203Z,33.96
2022-08-17T15:17:44.316Z,34.04
2022-08-17T15:20:15.271Z,34.11
2022-08-17T15:22:43.970Z,34.28
2022-08-17T15:25:12.726Z,34.37
2022-08-17T15:27:41.063Z,34.54
2022-08-17T15:30:12.104Z,34.68
2022-08-17T15:32:41.148Z,34.98
2022-08-17T15:35:19.338Z,35.29
2022-08-17T15:37:55.218Z,35.49
2022-08-17T15:40:23.438Z,35.57
2022-08-17T15:42:51.549Z,35.64
2022-08-17T15:45:24.646Z,35.71
2022-08-17T15:47:53.233Z,35.64
2022-08-17T15:50:21.762Z,35.79
2022-08-17T15:52:55.674Z,35.88
2022-08-17T15:55:24.398Z,35.90
2022-08-17T15:57:53.498Z,35.99
2022-08-17T16:00:24.219Z,36.18
2022-08-17T16:03:15.178Z,36.18
2022-08-17T16:05:41.478Z,36.12
2022-08-17T16:08:11.231Z,35.98
2022-08-17T16:10:39.383Z,35.94
2022-08-17T16:13:17.627Z,36.02
2022-08-17T16:15:56.984Z,36.13
2022-08-17T16:18:26.432Z,36.14
2022-08-17T16:20:55.103Z,36.25
2022-08-17T16:23:23.261Z,36.33
2022-08-17T16:25:53.939Z,36.25
2022-08-17T16:28:36.008Z,36.08
2022-08-17T16:31:07.962Z,36.02
2022-08-17T16:33:37.674Z,35.99
2022-08-17T16:36:08.568Z,35.99
2022-08-17T16:38:36.824Z,35.97
2022-08-17T16:41:05.127Z,35.88
2022-08-17T16:43:33.294Z,35.91
2022-08-17T16:46:01.873Z,35.44
2022-08-17T16:48:31.485Z,34.70
2022-08-17T16:51:04.517Z,34.20
2022-08-17T16:53:32.897Z,34.31
2022-08-17T16:56:03.639Z,34.21
2022-08-17T16:58:31.657Z,34.22
2022-08-17T17:01:00.012Z,34.55
2022-08-17T17:03:28.241Z,34.42
2022-08-17T17:06:03.798Z,33.93
2022-08-17T17:08:40.660Z,33.67
2022-08-17T17:11:11.735Z,33.56
2022-08-17T17:13:41.531Z,33.63
2022-08-17T17:16:17.382Z,33.70
2022-08-17T17:18:52.907Z,33.64
2022-08-17T17:21:22.587Z,33.58
2022-08-17T17:23:53.008Z,33.57
2022-08-17T17:26:46.379Z,33.70
2022-08-17T17:29:21.157Z,33.63
2022-08-17T17:31:52.462Z,33.43
2022-08-17T17:34:20.549Z,33.52
2022-08-17T17:36:51.793Z,33.37
2022-08-17T17:39:21.053Z,32.91
2022-08-17T17:41:51.841Z,32.60
2022-08-17T17:44:23.001Z,32.36
2022-08-17T17:46:52.834Z,32.14
2022-08-17T17:49:20.934Z,31.91
2022-08-17T17:52:08.809Z,31.71
2022-08-17T17:54:48.457Z,31.55
2022-08-17T17:57:21.306Z,31.36
2022-08-17T17:59:59.885Z,31.24
2022-08-17T18:02:52.570Z,31.11
2022-08-17T18:05:34.410Z,30.70
2022-08-17T18:08:11.032Z,30.31
2022-08-17T18:10:44.957Z,30.02
2022-08-17T18:13:22.079Z,29.87
2022-08-17T18:15:54.790Z,29.52
2022-08-17T18:18:38.543Z,29.07
2022-08-17T18:21:14.894Z,28.79
2022-08-17T18:23:56.120Z,28.72
2022-08-17T18:26:44.719Z,28.70
2022-08-17T18:29:39.073Z,28.54
2022-08-17T18:32:31.257Z,28.35
2022-08-17T18:35:01.380Z,28.19
2022-08-17T18:37:44.938Z,28.03
2022-08-17T18:40:33.117Z,27.76
2022-08-17T18:43:13.356Z,27.51
2022-08-17T18:45:44.655Z,27.36
2022-08-17T18:48:21.906Z,27.22
2022-08-17T18:50:51.369Z,27.07
2022-08-17T18:53:33.411Z,27.02
2022-08-17T18:56:30.737Z,26.91
2022-08-17T18:59:07.494Z,26.78
2022-08-17T19:01:41.691Z,26.74
2022-08-17T19:04:34.135Z,26.76
2022-08-17T19:07:08.469Z,26.73
2022-08-17T19:09:38.018Z,26.69
2022-08-17T19:12:09.660Z,26.62
2022-08-17T19:14:37.922Z,26.56
2022-08-17T19:17:07.293Z,26.51
2022-08-17T19:19:39.266Z,26.40
2022-08-17T19:22:13.114Z,26.32
2022-08-17T19:24:47.601Z,26.32
2022-08-17T19:27:20.362Z,26.22
2022-08-17T19:29:51.295Z,26.20
2022-08-17T19:32:21.665Z,26.13
2022-08-17T19:34:49.819Z,26.10
2022-08-17T19:37:25.922Z,26.05
2022-08-17T19:39:57.941Z,26.05
2022-08-17T19:42:37.136Z,26.05
2022-08-17T19:45:09.262Z,26.02
2022-08-17T19:47:56.582Z,25.99
2022-08-17T19:50:31.676Z,25.99
2022-08-17T19:53:02.796Z,26.00
2022-08-17T19:55:33.305Z,26.00
2022-08-17T19:58:06.784Z,25.99
2022-08-17T20:00:36.277Z,25.98
2022-08-17T20:03:06.499Z,25.92
2022-08-17T20:06:00.940Z,25.81
2022-08-17T20:08:27.971Z,25.77
2022-08-17T20:10:58.006Z,25.73
2022-08-17T20:13:33.018Z,25.73
2022-08-17T20:16:02.035Z,25.78
2022-08-17T20:18:37.860Z,25.81
2022-08-17T20:21:19.817Z,25.77
2022-08-17T20:23:53.262Z,25.71
2022-08-17T20:26:26.320Z,25.67
2022-08-17T20:29:36.930Z,25.58
2022-08-17T20:32:25.607Z,25.46
2022-08-17T20:35:17.542Z,25.34
2022-08-17T20:37:53.606Z,25.22
2022-08-17T20:40:40.768Z,25.15
2022-08-17T20:43:44.709Z,25.11
2022-08-17T20:46:28.209Z,25.03
2022-08-17T20:48:57.969Z,25.01
2022-08-17T20:51:29.607Z,25.01
2022-08-17T20:54:01.996Z,25.02
2022-08-17T20:56:48.868Z,25.03
2022-08-17T20:59:50.138Z,25.03
2022-08-17T21:02:22.105Z,24.98
2022-08-17T21:05:15.439Z,24.98
2022-08-17T21:07:53.285Z,24.93
2022-08-17T21:10:31.438Z,24.88
2022-08-17T21:13:01.483Z,24.81
2022-08-17T21:15:32.147Z,24.75
2022-08-17T21:18:07.517Z,24.73
2022-08-17T21:20:40.605Z,24.74
2022-08-17T21:23:36.449Z,24.82
2022-08-17T21:26:30.219Z,24.80
2022-08-17T21:29:29.495Z,24.83
2022-08-17T21:32:24.459Z,24.90
2022-08-17T21:35:26.221Z,24.91
2022-08-17T21:37:57.246Z,24.89
2022-08-17T21:40:26.987Z,24.91
2022-08-17T21:42:58.089Z,24.88
2022-08-17T21:45:27.308Z,24.91
2022-08-17T21:48:08.956Z,24.93
2022-08-17T21:50:38.826Z,24.91
2022-08-17T21:53:06.843Z,24.93
2022-08-17T21:55:35.324Z,24.91
2022-08-17T21:58:20.553Z,24.90
2022-08-17T22:00:48.659Z,24.87
2022-08-17T22:03:23.614Z,24.83
2022-08-17T22:05:53.051Z,24.78
2022-08-17T22:08:22.537Z,24.73
2022-08-17T22:10:51.362Z,24.74
2022-08-17T22:13:21.660Z,24.72
2022-08-17T22:15:50.438Z,24.73
2022-08-17T22:18:20.603Z,24.71
2022-08-17T22:20:52.748Z,24.71
2022-08-17T22:23:44.302Z,24.68
2022-08-17T22:26:14.429Z,24.65
2022-08-17T22:28:45.666Z,24.65
2022-08-17T22:31:14.814Z,24.65
2022-08-17T22:33:45.218Z,24.61
2022-08-17T22:36:25.183Z,24.57
2022-08-17T22:38:55.328Z,24.52
2022-08-17T22:41:39.146Z,24.46
2022-08-17T22:44:25.037Z,24.41
2022-08-17T22:47:01.361Z,24.39
2022-08-17T22:49:31.952Z,24.41
2022-08-17T22:52:22.189Z,24.47
2022-08-17T22:55:10.592Z,24.47
2022-08-17T22:57:52.668Z,24.50
2022-08-17T23:00:32.298Z,24.52
2022-08-17T23:03:09.603Z,24.49
2022-08-17T23:05:37.793Z,24.44
2022-08-17T23:08:05.858Z,24.40
2022-08-17T23:10:37.421Z,24.37
2022-08-17T23:13:07.713Z,24.34
2022-08-17T23:15:35.769Z,24.29
2022-08-17T23:18:04.730Z,24.24
2022-08-17T23:20:33.565Z,24.23
2022-08-17T23:23:01.615Z,24.22
2022-08-17T23:25:30.736Z,24.20
2022-08-17T23:28:01.691Z,24.15
2022-08-17T23:30:30.627Z,24.10
2022-08-17T23:33:01.195Z,24.04
2022-08-17T23:35:40.201Z,24.00
2022-08-17T23:38:10.100Z,23.93
2022-08-17T23:40:39.174Z,23.81
2022-08-17T23:43:23.382Z,23.74
2022-08-17T23:45:53.427Z,23.70
2022-08-17T23:48:35.159Z,23.65
2022-08-17T23:51:08.733Z,23.61
2022-08-17T23:53:37.260Z,23.58
2022-08-17T23:56:10.087Z,23.57
2022-08-17T23:58:42.135Z,23.57
